Time;durP1;ratioP1;P1;durP2;ratioP2;P2;SDS_P1;SDS_P2;PMS_P1;PMS_P2;Temp;Humidity;BMP_temperature;BMP_pressure;BME280_temperature;BME280_humidity;BME280_pressure;Samples;Min_cycle;Max_cycle;Signal;HPM_P1;HPM_P2
2024/04/21 00:01:17;;;;;;;19.40;10.93;;;;;;;7.33;50.28;100658.38;5322237;26;20650;-83
2024/04/21 00:03:43;;;;;;;23.90;10.35;;;;;;;7.40;50.42;100649.00;5377234;26;20012;-83
2024/04/21 00:06:09;;;;;;;19.85;10.90;;;;;;;7.15;50.00;100612.34;5375452;26;20338;-84
2024/04/21 00:08:38;;;;;;;15.48;10.05;;;;;;;7.35;49.88;100656.69;5375255;26;20826;-82
2024/04/21 00:11:04;;;;;;;15.93;9.23;;;;;;;7.19;50.35;100614.13;5373315;26;20000;-83
2024/04/21 00:13:31;;;;;;;19.65;10.40;;;;;;;7.39;50.07;100636.94;5405644;26;20004;-86
2024/04/21 00:15:57;;;;;;;15.90;9.70;;;;;;;7.09;49.79;100584.63;5352866;26;20000;-85
2024/04/21 00:18:24;;;;;;;19.60;9.38;;;;;;;7.27;50.00;100600.44;5325425;26;20103;-85
2024/04/21 00:20:51;;;;;;;14.88;9.25;;;;;;;7.02;49.76;100574.13;5377251;26;20003;-84
2024/04/21 00:23:17;;;;;;;15.93;9.10;;;;;;;7.27;49.33;100618.56;5321191;26;20008;-85
2024/04/21 00:25:55;;;;;;;14.75;7.85;;;;;;;7.03;49.42;100592.28;5406926;26;20002;-84
2024/04/21 00:28:22;;;;;;;18.02;8.43;;;;;;;7.11;49.82;100600.19;5326293;26;20018;-86
2024/04/21 00:30:48;;;;;;;17.85;8.57;;;;;;;7.28;50.13;100628.97;5352525;26;20000;-85
2024/04/21 00:33:15;;;;;;;15.98;8.18;;;;;;;7.03;49.66;100610.41;5346918;26;20015;-85
2024/04/21 00:35:45;;;;;;;18.08;9.05;;;;;;;7.21;50.13;100650.41;5320155;26;20071;-85
2024/04/21 00:38:11;;;;;;;16.55;7.97;;;;;;;7.04;50.03;100626.78;5370929;26;20011;-83
2024/04/21 00:40:37;;;;;;;16.17;8.68;;;;;;;7.09;50.28;100638.09;5346991;26;20011;-82
2024/04/21 00:43:08;;;;;;;19.45;9.75;;;;;;;6.83;50.33;100611.75;5347533;26;20000;-82
2024/04/21 00:45:39;;;;;;;17.77;9.15;;;;;;;7.22;50.47;100673.72;5319411;26;20004;-84
2024/04/21 00:48:07;;;;;;;19.40;9.25;;;;;;;7.07;50.60;100653.59;5374833;26;20011;-82
2024/04/21 00:50:34;;;;;;;17.88;9.60;;;;;;;6.75;50.48;100602.09;5339999;26;20003;-83
2024/04/21 00:53:02;;;;;;;18.45;10.15;;;;;;;7.02;50.95;100651.75;5380258;26;20019;-84
2024/04/21 00:55:28;;;;;;;17.92;8.57;;;;;;;6.79;50.60;100618.56;5367235;26;20011;-84
2024/04/21 00:57:58;;;;;;;19.15;9.73;;;;;;;6.97;50.76;100668.91;5371962;26;20010;-82
2024/04/21 01:00:26;;;;;;;21.13;9.80;;;;;;;6.80;51.09;100640.13;5373971;26;20004;-83
2024/04/21 01:02:52;;;;;;;28.02;10.38;;;;;;;6.97;50.95;100666.31;5403432;26;20004;-83
2024/04/21 01:05:18;;;;;;;15.60;9.07;;;;;;;6.87;51.21;100650.63;5367561;26;20004;-82
2024/04/21 01:07:44;;;;;;;25.40;9.20;;;;;;;6.66;51.30;100612.25;5344391;26;20025;-82
2024/04/21 01:10:11;;;;;;;18.95;9.10;;;;;;;6.97;51.21;100656.88;5318851;26;20023;-83
2024/04/21 01:12:41;;;;;;;24.42;10.48;;;;;;;6.87;51.31;100636.81;5350820;26;20019;-83
2024/04/21 01:15:08;;;;;;;22.17;10.20;;;;;;;6.98;51.37;100652.53;5343680;26;20014;-83
2024/04/21 01:17:34;;;;;;;18.08;9.52;;;;;;;6.82;51.48;100628.09;5349596;26;20027;-83
2024/04/21 01:20:02;;;;;;;24.95;10.70;;;;;;;7.15;51.59;100677.06;5337873;26;20012;-82
2024/04/21 01:22:33;;;;;;;21.05;9.98;;;;;;;7.10;51.83;100676.09;5332168;26;20008;-79
2024/04/21 01:25:00;;;;;;;16.25;9.07;;;;;;;7.03;51.47;100658.69;5330273;26;20015;-78
2024/04/21 01:27:26;;;;;;;19.02;8.88;;;;;;;7.06;51.64;100672.56;5356099;26;20045;-79
2024/04/21 01:29:53;;;;;;;18.55;9.02;;;;;;;6.87;51.39;100629.03;5331435;26;20020;-81
2024/04/21 01:32:23;;;;;;;18.98;8.27;;;;;;;6.97;51.41;100651.69;5306251;26;20005;-81
2024/04/21 01:34:53;;;;;;;20.52;7.82;;;;;;;7.12;51.14;100677.00;5376555;26;20019;-82
2024/04/21 01:37:19;;;;;;;14.55;7.80;;;;;;;7.07;51.31;100651.00;5340500;26;20483;-81
2024/04/21 01:39:46;;;;;;;17.67;8.88;;;;;;;6.93;51.20;100624.88;5336096;26;20012;-82
2024/04/21 01:42:13;;;;;;;19.73;9.95;;;;;;;7.14;51.30;100641.66;5312879;26;20009;-81
2024/04/21 01:44:40;;;;;;;16.45;8.38;;;;;;;7.46;51.02;100690.56;5318519;26;20001;-81
2024/04/21 01:47:06;;;;;;;17.20;9.10;;;;;;;7.09;50.81;100628.63;5361288;26;20016;-82
2024/04/21 01:49:32;;;;;;;15.75;8.68;;;;;;;7.17;51.23;100649.47;5337245;26;20554;-82
2024/04/21 01:51:59;;;;;;;15.82;8.07;;;;;;;7.37;51.05;100674.88;5365692;26;20001;-82
2024/04/21 01:54:25;;;;;;;18.27;7.78;;;;;;;7.31;51.22;100660.06;5360413;26;20015;-82
2024/04/21 01:56:52;;;;;;;13.95;7.18;;;;;;;7.22;50.83;100655.59;5344112;26;20525;-84
2024/04/21 01:59:21;;;;;;;14.15;7.05;;;;;;;7.26;50.70;100681.56;5341328;26;20004;-84
2024/04/21 02:01:52;;;;;;;14.25;7.38;;;;;;;6.98;50.89;100648.25;5335260;26;20011;-83
2024/04/21 02:04:18;;;;;;;13.10;7.82;;;;;;;7.24;51.28;100699.66;5371034;26;20476;-83
2024/04/21 02:06:45;;;;;;;11.85;7.72;;;;;;;7.12;51.46;100689.06;5366937;26;20014;-82
2024/04/21 02:09:11;;;;;;;16.67;8.15;;;;;;;6.92;51.58;100640.38;5361691;26;20198;-84
2024/04/21 02:11:37;;;;;;;16.42;8.13;;;;;;;7.09;51.44;100664.84;5340981;26;20076;-84
2024/04/21 02:14:03;;;;;;;14.70;7.38;;;;;;;7.29;51.75;100686.78;5329096;26;20466;-86
2024/04/21 02:16:30;;;;;;;11.02;7.00;;;;;;;7.02;51.47;100641.41;5322066;26;20008;-86
2024/04/21 02:18:59;;;;;;;11.32;6.28;;;;;;;7.18;51.96;100664.16;5374594;26;20058;-87
2024/04/21 02:21:25;;;;;;;12.82;6.75;;;;;;;7.28;51.68;100680.75;5385236;26;20491;-87
2024/04/21 02:23:52;;;;;;;15.25;6.43;;;;;;;7.18;51.21;100663.28;5332241;26;20026;-88
2024/04/21 02:26:18;;;;;;;12.02;6.47;;;;;;;7.14;51.34;100653.72;5354191;26;20090;-88
2024/04/21 02:28:44;;;;;;;8.90;5.53;;;;;;;6.84;51.47;100611.75;5384595;26;20468;-89
2024/04/21 02:31:11;;;;;;;12.73;5.80;;;;;;;7.21;51.50;100671.13;5354938;26;20004;-86
2024/04/21 02:33:37;;;;;;;10.82;5.22;;;;;;;7.04;51.69;100645.78;5359254;26;20043;-86
2024/04/21 02:36:04;;;;;;;10.80;5.55;;;;;;;7.02;51.81;100654.34;5359238;26;20003;-87
2024/04/21 02:38:31;;;;;;;12.07;5.70;;;;;;;7.11;51.68;100670.06;5379128;26;20041;-81
2024/04/21 02:41:30;;;;;;;12.05;4.90;;;;;;;7.20;51.78;100693.53;5359561;26;20000;-84
2024/04/21 02:43:56;;;;;;;12.75;5.10;;;;;;;6.99;51.84;100657.75;5383064;26;20000;-84
2024/04/21 02:46:23;;;;;;;7.10;4.95;;;;;;;7.14;51.99;100667.53;5413585;26;20019;-85
2024/04/21 02:48:49;;;;;;;11.48;4.85;;;;;;;7.18;51.94;100665.88;5362436;26;20078;-83
2024/04/21 02:51:16;;;;;;;9.93;5.15;;;;;;;7.22;51.89;100657.34;5362034;26;20343;-85
2024/04/21 02:53:42;;;;;;;11.23;4.72;;;;;;;7.29;52.38;100666.94;5360756;26;20008;-84
2024/04/21 02:56:08;;;;;;;8.05;4.80;;;;;;;6.99;51.72;100631.88;5355127;26;20018;-82
2024/04/21 02:58:35;;;;;;;10.10;4.57;;;;;;;7.35;52.01;100690.34;5383350;26;20012;-84
2024/04/21 03:01:05;;;;;;;11.73;5.25;;;;;;;7.22;52.21;100668.53;5351797;26;19996;-82
2024/04/21 03:03:31;;;;;;;9.30;5.20;;;;;;;7.37;52.12;100675.72;5352155;26;20015;-84
2024/04/21 03:05:58;;;;;;;8.48;4.80;;;;;;;7.08;52.16;100629.47;5361541;26;20004;-84
2024/04/21 03:08:27;;;;;;;8.65;4.45;;;;;;;7.32;52.05;100655.78;5365308;26;20010;-85
2024/04/21 03:10:53;;;;;;;9.27;4.57;;;;;;;7.30;51.96;100631.56;5355613;26;20008;-85
2024/04/21 03:13:20;;;;;;;7.30;4.10;;;;;;;7.16;51.46;100611.50;5375401;26;20091;-86
2024/04/21 03:15:48;;;;;;;9.18;4.95;;;;;;;7.42;51.18;100659.41;5385607;26;20103;-85
2024/04/21 03:18:16;;;;;;;8.10;4.90;;;;;;;7.32;51.93;100643.69;5354654;26;20000;-86
2024/04/21 03:20:42;;;;;;;7.72;3.83;;;;;;;7.14;51.80;100614.88;5378641;26;20429;-85
2024/04/21 03:23:08;;;;;;;8.68;4.20;;;;;;;7.29;51.91;100630.69;5378774;26;20004;-84
2024/04/21 03:25:35;;;;;;;6.88;4.13;;;;;;;7.38;51.73;100646.41;5379646;26;20066;-85
2024/04/21 03:28:01;;;;;;;6.95;3.78;;;;;;;7.20;51.63;100615.88;5345151;26;20401;-77
2024/04/21 03:30:28;;;;;;;5.53;3.78;;;;;;;7.45;51.63;100675.00;5401923;26;20003;-79
2024/04/21 03:32:54;;;;;;;7.40;4.15;;;;;;;7.53;51.52;100665.63;5346247;26;20000;-80
2024/04/21 03:35:20;;;;;;;8.70;4.25;;;;;;;7.50;51.50;100658.69;5368458;26;20007;-80
2024/04/21 03:37:46;;;;;;;7.60;4.35;;;;;;;7.46;51.44;100645.69;5403430;26;20077;-80
2024/04/21 03:40:13;;;;;;;6.30;4.65;;;;;;;7.54;51.83;100634.59;5339561;26;20077;-80
2024/04/21 03:42:39;;;;;;;6.65;3.80;;;;;;;7.62;51.16;100649.38;5313819;26;20553;-80
2024/04/21 03:45:07;;;;;;;6.03;3.83;;;;;;;7.85;50.98;100683.44;5344299;26;20349;-79
2024/04/21 03:47:34;;;;;;;6.55;3.92;;;;;;;7.71;51.22;100665.09;5348540;26;20059;-81
2024/04/21 03:50:00;;;;;;;7.22;3.83;;;;;;;7.61;51.19;100619.16;5345957;26;20358;-79
2024/04/21 03:52:26;;;;;;;5.47;3.38;;;;;;;7.86;51.36;100645.44;5401359;26;20018;-80
2024/04/21 03:54:52;;;;;;;8.50;4.15;;;;;;;8.02;51.22;100665.59;5346250;26;20022;-80
2024/04/21 03:57:29;;;;;;;6.72;3.83;;;;;;;7.76;50.38;100606.44;5349747;26;20007;-81
2024/04/21 03:59:56;;;;;;;7.50;3.85;;;;;;;8.11;50.92;100654.47;5348089;26;20081;-79
2024/04/21 04:02:22;;;;;;;6.15;3.85;;;;;;;7.96;50.88;100600.69;5371630;26;20022;-80
2024/04/21 04:04:48;;;;;;;6.88;4.22;;;;;;;7.89;50.98;100591.06;5314957;26;20007;-80
2024/04/21 04:07:14;;;;;;;8.05;4.20;;;;;;;8.14;50.77;100606.13;5371314;26;20012;-81
2024/04/21 04:09:40;;;;;;;6.90;3.92;;;;;;;8.59;50.49;100657.75;5367134;26;20513;-82
2024/04/21 04:12:07;;;;;;;6.85;4.05;;;;;;;8.35;50.30;100598.63;5371295;26;20009;-81
2024/04/21 04:14:34;;;;;;;11.88;7.88;;;;;;;8.76;49.94;100645.00;5337789;26;20011;-84
2024/04/21 04:17:03;;;;;;;10.02;7.05;;;;;;;8.59;50.03;100613.66;5316824;26;20001;-80
2024/04/21 04:19:30;;;;;;;7.50;5.22;;;;;;;8.73;49.96;100601.72;5347873;26;20123;-80
2024/04/21 04:21:56;;;;;;;9.57;4.72;;;;;;;8.91;49.96;100610.59;5395670;26;20019;-80
2024/04/21 04:24:23;;;;;;;5.53;3.72;;;;;;;9.13;49.39;100639.38;5317213;26;20007;-79
2024/04/21 04:26:49;;;;;;;5.50;3.47;;;;;;;9.04;49.04;100616.78;5346323;26;20044;-80
2024/04/21 04:29:15;;;;;;;6.38;3.85;;;;;;;8.86;49.52;100604.47;5369568;26;20004;-78
2024/04/21 04:31:41;;;;;;;10.00;5.05;;;;;;;9.21;49.32;100644.63;5367619;26;20009;-80
2024/04/21 04:34:08;;;;;;;7.30;4.20;;;;;;;8.81;49.08;100577.56;5345726;26;20003;-79
2024/04/21 04:36:38;;;;;;;9.82;4.00;;;;;;;9.00;48.88;100608.06;5320268;26;20350;-78
2024/04/21 04:39:04;;;;;;;6.13;3.88;;;;;;;9.16;49.01;100627.28;5345344;26;20004;-78
2024/04/21 04:41:30;;;;;;;3.65;2.55;;;;;;;9.29;49.16;100624.78;5374673;26;20135;-82
2024/04/21 04:43:57;;;;;;;3.33;2.63;;;;;;;9.42;49.12;100628.38;5344654;26;20137;-78
2024/04/21 04:46:23;;;;;;;2.95;2.45;;;;;;;9.43;48.86;100631.00;5377232;26;20023;-80
2024/04/21 04:48:49;;;;;;;4.35;2.60;;;;;;;9.52;48.55;100629.31;5347421;26;20030;-83
2024/04/21 04:51:18;;;;;;;4.63;2.47;;;;;;;9.36;48.77;100589.38;5410082;26;20011;-83
2024/04/21 04:53:44;;;;;;;7.18;2.53;;;;;;;9.56;48.22;100631.97;5323464;26;20336;-85
2024/04/21 04:56:10;;;;;;;6.47;2.65;;;;;;;9.15;48.03;100568.41;5356898;26;20081;-86
2024/04/21 04:58:36;;;;;;;5.65;2.30;;;;;;;9.32;48.19;100588.44;5376150;26;20331;-85
2024/04/21 05:01:03;;;;;;;5.35;2.53;;;;;;;9.45;48.51;100568.66;5377725;26;20020;-86
2024/04/21 05:03:29;;;;;;;4.88;2.70;;;;;;;9.60;48.02;100566.16;5352764;26;20109;-85
2024/04/21 05:05:56;;;;;;;8.20;2.80;;;;;;;9.97;47.88;100593.28;5378959;26;20470;-84
2024/04/21 05:08:22;;;;;;;2.30;2.00;;;;;;;9.69;47.77;100541.09;5351338;26;20038;-85
2024/04/21 05:10:48;;;;;;;2.40;2.17;;;;;;;9.89;47.74;100557.69;5321063;26;20008;-85
2024/04/21 05:13:20;;;;;;;2.47;2.20;;;;;;;9.74;47.72;100526.41;5351594;26;20270;-86
2024/04/21 05:15:47;;;;;;;3.05;2.40;;;;;;;10.14;47.47;100596.84;5380101;26;20049;-85
2024/04/21 05:18:16;;;;;;;4.43;2.30;;;;;;;10.08;47.83;100565.59;5350332;26;20105;-83
2024/04/21 05:20:42;;;;;;;4.35;2.10;;;;;;;9.89;47.92;100517.84;5293123;26;1580198;-83
2024/04/21 05:23:08;;;;;;;4.10;2.20;;;;;;;10.17;47.77;100562.16;5378485;26;19999;-85
2024/04/21 05:25:37;;;;;;;3.28;2.17;;;;;;;10.23;47.63;100559.59;5379319;26;20004;-85
2024/04/21 05:28:03;;;;;;;7.43;2.40;;;;;;;10.16;47.29;100524.03;5354693;26;20037;-84
2024/04/21 05:30:29;;;;;;;2.97;2.20;;;;;;;10.51;47.26;100542.41;5332800;26;20057;-84
2024/04/21 05:32:55;;;;;;;4.00;2.55;;;;;;;10.33;46.99;100532.78;5397832;26;20000;-85
2024/04/21 05:35:24;;;;;;;7.93;2.40;;;;;;;10.68;46.35;100575.44;5368909;26;20016;-84
2024/04/21 05:37:53;;;;;;;3.47;2.70;;;;;;;10.42;46.02;100539.78;5354171;26;21246;-83
2024/04/21 05:40:19;;;;;;;6.72;3.38;;;;;;;10.22;46.28;100535.34;5370023;26;20008;-81
2024/04/21 05:42:47;;;;;;;4.38;2.75;;;;;;;10.31;46.13;100546.63;5344038;26;20004;-79
2024/04/21 05:45:13;;;;;;;6.30;2.47;;;;;;;9.96;45.52;100465.00;5349617;26;20004;-84
2024/04/21 05:47:40;;;;;;;2.70;2.35;;;;;;;10.72;45.68;100571.09;5341275;26;20004;-77
2024/04/21 05:50:31;;;;;;;4.25;2.28;;;;;;;10.95;45.85;100555.53;5308616;26;20006;-76
2024/04/21 05:52:59;;;;;;;3.97;2.10;;;;;;;10.92;45.54;100493.06;5370423;26;20031;-79
2024/04/21 05:55:26;;;;;;;4.40;1.95;;;;;;;11.47;44.94;100520.81;5341219;26;20032;-76
2024/04/21 05:57:52;;;;;;;3.22;1.90;;;;;;;12.02;44.49;100538.13;5338819;26;20509;-77
2024/04/21 06:00:24;;;;;;;2.40;2.03;;;;;;;12.38;43.51;100505.78;5339296;26;20466;-74
2024/04/21 06:02:52;;;;;;;3.13;1.88;;;;;;;12.39;43.56;100452.72;5346745;26;21508;-76
2024/04/21 06:05:19;;;;;;;5.68;2.00;;;;;;;12.88;42.66;100494.19;5359787;26;20036;-83
2024/04/21 06:07:45;;;;;;;4.93;2.10;;;;;;;13.08;42.38;100491.38;5314381;26;20022;-79
2024/04/21 06:10:11;;;;;;;4.30;2.30;;;;;;;13.26;42.00;100443.34;5370949;26;20023;-76
2024/04/21 06:12:39;;;;;;;5.72;2.00;;;;;;;15.23;41.08;100455.56;5320917;26;20003;-80
2024/04/21 06:15:05;;;;;;;4.45;2.30;;;;;;;15.72;39.04;100471.28;5338634;26;20026;-80
2024/04/21 06:17:32;;;;;;;3.63;2.20;;;;;;;15.90;37.66;100462.19;5370395;26;20003;-79
2024/04/21 06:19:59;;;;;;;3.60;2.40;;;;;;;15.70;37.57;100441.59;5339113;26;20004;-81
2024/04/21 06:22:25;;;;;;;3.67;2.50;;;;;;;15.48;37.27;100442.00;5317302;26;20134;-81
2024/04/21 06:24:51;;;;;;;6.20;2.72;;;;;;;15.54;36.84;100491.72;5329049;26;19999;-79
2024/04/21 06:27:20;;;;;;;4.28;2.65;;;;;;;15.23;37.00;100441.59;5347853;26;20046;-81
2024/04/21 06:29:46;;;;;;;4.32;2.28;;;;;;;14.87;37.05;100437.81;5314544;26;19996;-81
2024/04/21 06:32:20;;;;;;;2.35;1.80;;;;;;;14.60;36.41;100415.53;5367823;26;20547;-78
2024/04/21 06:34:49;;;;;;;5.75;1.90;;;;;;;14.39;37.17;100443.78;5375118;26;20022;-77
2024/04/21 06:37:16;;;;;;;9.18;1.90;;;;;;;14.40;36.11;100470.81;5368265;26;20003;-79
2024/04/21 06:39:42;;;;;;;3.45;2.00;;;;;;;13.91;36.05;100417.38;5356369;26;19999;-78
2024/04/21 06:42:11;;;;;;;5.60;1.85;;;;;;;13.75;36.99;100409.72;5345702;26;20034;-78
2024/04/21 06:44:38;;;;;;;5.38;2.20;;;;;;;14.01;37.04;100445.16;5386906;26;20003;-79
2024/04/21 06:47:06;;;;;;;4.28;1.73;;;;;;;14.15;36.82;100403.09;5348662;26;20494;-78
2024/04/21 06:49:38;;;;;;;3.03;1.80;;;;;;;14.15;36.96;100429.25;5372304;26;20006;-77
2024/04/21 06:52:05;;;;;;;3.25;1.90;;;;;;;14.21;35.84;100402.16;5375031;26;20000;-80
2024/04/21 06:54:31;;;;;;;3.05;2.08;;;;;;;14.23;36.33;100396.00;5349194;26;20496;-77
2024/04/21 06:56:59;;;;;;;5.05;2.05;;;;;;;14.61;36.21;100370.13;5399070;26;20580;-79
2024/04/21 06:59:25;;;;;;;5.53;1.80;;;;;;;14.96;35.46;100394.88;5402017;26;20370;-78
2024/04/21 07:01:52;;;;;;;3.75;1.90;;;;;;;15.75;35.27;100361.03;5312331;26;20486;-79
2024/04/21 07:04:19;;;;;;;2.47;1.77;;;;;;;16.15;34.01;100361.91;5356560;26;20014;-77
2024/04/21 07:06:45;;;;;;;6.68;1.85;;;;;;;16.35;33.54;100354.44;5369666;26;20003;-79
2024/04/21 07:09:11;;;;;;;4.68;2.10;;;;;;;16.63;33.32;100390.53;5405716;26;20028;-76
2024/04/21 07:11:37;;;;;;;4.30;1.80;;;;;;;16.71;33.26;100383.34;5315155;26;20007;-78
2024/04/21 07:14:03;;;;;;;13.98;1.85;;;;;;;16.23;32.26;100362.63;5343945;26;20019;-78
2024/04/21 07:16:29;;;;;;;7.85;1.90;;;;;;;15.75;32.97;100361.03;5310278;26;20015;-76
2024/04/21 07:18:59;;;;;;;2.75;1.70;;;;;;;15.47;32.83;100369.47;5370908;26;20015;-77
2024/04/21 07:21:25;;;;;;;3.30;1.60;;;;;;;15.46;32.89;100376.47;5341935;26;20011;-78
2024/04/21 07:24:01;;;;;;;6.13;2.20;;;;;;;15.29;33.13;100353.22;5338343;26;20003;-78
2024/04/21 07:26:27;;;;;;;4.25;1.88;;;;;;;15.61;33.44;100367.41;5349690;26;20022;-79
2024/04/21 07:28:53;;;;;;;4.25;1.77;;;;;;;15.62;32.90;100307.97;5319962;26;20084;-78
2024/04/21 07:31:19;;;;;;;4.47;1.70;;;;;;;15.78;32.63;100311.97;5344228;26;20000;-79
2024/04/21 07:33:46;;;;;;;6.57;2.00;;;;;;;16.03;32.18;100323.69;5342703;26;20003;-77
2024/04/21 07:36:12;;;;;;;4.50;1.88;;;;;;;16.15;32.38;100351.41;5312523;26;20010;-76
2024/04/21 07:38:38;;;;;;;2.10;1.90;;;;;;;16.37;32.40;100328.16;5318020;26;20835;-74
2024/04/21 07:41:09;;;;;;;7.88;1.90;;;;;;;17.15;32.41;100321.78;5320322;26;20014;-78
2024/04/21 07:43:35;;;;;;;2.80;1.90;;;;;;;17.52;30.83;100244.44;5322267;26;20003;-76
2024/04/21 07:46:01;;;;;;;3.97;2.00;;;;;;;18.34;30.95;100307.69;5326524;26;20012;-76
2024/04/21 07:48:27;;;;;;;3.60;2.38;;;;;;;19.04;30.51;100280.75;5337963;26;20014;-77
2024/04/21 07:50:53;;;;;;;6.10;2.40;;;;;;;19.67;29.17;100282.78;5305035;26;20062;-78
2024/04/21 07:53:20;;;;;;;8.63;2.85;;;;;;;19.32;28.32;100280.56;5337632;26;20073;-75
2024/04/21 07:55:49;;;;;;;3.95;2.00;;;;;;;19.08;29.40;100277.09;5345375;26;20000;-77
2024/04/21 07:58:18;;;;;;;6.15;2.60;;;;;;;19.63;28.92;100254.78;5340487;26;20008;-79
2024/04/21 08:00:44;;;;;;;2.30;1.85;;;;;;;20.12;28.71;100209.69;5375467;26;20059;-79
2024/04/21 08:03:11;;;;;;;4.35;3.08;;;;;;;21.92;27.19;100199.81;5334069;26;20016;-78
2024/04/21 08:05:37;;;;;;;6.38;3.00;;;;;;;23.78;25.68;100228.91;5317069;26;20072;-80
2024/04/21 08:08:03;;;;;;;9.93;4.18;;;;;;;25.84;24.51;100189.69;5357687;26;20062;-79
2024/04/21 08:10:30;;;;;;;6.75;3.13;;;;;;;26.50;22.83;100218.19;5367517;26;20000;-80
2024/04/21 08:12:56;;;;;;;13.27;6.07;;;;;;;25.27;21.71;100191.56;5342334;26;20010;-80
2024/04/21 08:15:22;;;;;;;18.67;7.38;;;;;;;24.63;22.93;100181.34;5336367;26;20003;-80
2024/04/21 08:17:48;;;;;;;20.95;8.10;;;;;;;26.09;22.61;100168.53;5363089;26;19999;-77
2024/04/21 08:20:18;;;;;;;18.13;8.05;;;;;;;27.34;21.02;100170.44;5341631;26;20054;-79
2024/04/21 08:22:44;;;;;;;11.38;5.20;;;;;;;28.39;19.06;100195.63;5343078;26;20026;-80
2024/04/21 08:25:10;;;;;;;6.30;3.97;;;;;;;28.83;19.27;100169.06;5340135;26;20012;-82
2024/04/21 08:27:37;;;;;;;10.63;5.13;;;;;;;29.64;19.19;100144.66;5370204;26;20004;-82
2024/04/21 08:30:17;;;;;;;8.95;4.10;;;;;;;30.56;17.98;100169.09;5376718;26;19999;-78
2024/04/21 08:32:46;;;;;;;4.90;3.08;;;;;;;31.32;16.87;100143.59;5339722;26;20011;-79
2024/04/21 08:35:12;;;;;;;5.50;3.00;;;;;;;30.79;16.94;100083.81;5337226;26;20010;-79
2024/04/21 08:37:44;;;;;;;5.18;2.00;;;;;;;31.14;16.63;100120.13;5316399;26;19996;-80
2024/04/21 08:40:11;;;;;;;4.28;2.00;;;;;;;30.28;16.24;100124.03;5309100;26;20043;-80
2024/04/21 08:42:37;;;;;;;7.72;2.15;;;;;;;30.19;16.46;100130.19;5363767;26;20003;-78
2024/04/21 08:45:05;;;;;;;3.95;2.00;;;;;;;31.54;16.32;100156.78;5342824;26;20026;-77
2024/04/21 08:47:33;;;;;;;6.05;2.20;;;;;;;30.61;16.73;100115.88;5360436;26;20011;-78
2024/04/21 08:50:01;;;;;;;3.08;1.73;;;;;;;30.53;16.35;100132.63;5367113;26;20004;-79
2024/04/21 08:52:33;;;;;;;4.28;1.80;;;;;;;29.51;15.93;100139.47;5337190;26;20031;-78
2024/04/21 08:55:00;;;;;;;6.13;2.13;;;;;;;29.75;16.20;100040.00;5363552;26;20015;-79
2024/04/21 08:57:26;;;;;;;4.25;1.67;;;;;;;30.29;15.85;100101.59;5336864;26;21171;-80
2024/04/21 08:59:58;;;;;;;5.55;1.95;;;;;;;30.25;15.67;100030.41;5335773;26;20122;-80
2024/04/21 09:02:27;;;;;;;6.03;2.00;;;;;;;31.44;15.08;100066.38;5373702;26;20030;-78
2024/04/21 09:04:55;;;;;;;7.22;2.05;;;;;;;31.52;15.36;100021.66;5343226;26;20004;-78
2024/04/21 09:07:24;;;;;;;4.45;1.90;;;;;;;31.24;13.79;100095.94;5402989;26;20000;-79
2024/04/21 09:09:50;;;;;;;6.90;2.20;;;;;;;30.29;15.81;100090.00;5348524;26;20109;-79
2024/04/21 09:12:16;;;;;;;6.30;2.65;;;;;;;30.66;15.18;100076.03;5338545;26;20052;-78
2024/04/21 09:14:44;;;;;;;6.28;2.05;;;;;;;31.05;16.21;100086.84;5336904;26;20012;-80
2024/04/21 09:17:11;;;;;;;2.95;2.15;;;;;;;31.01;15.67;100063.06;5362243;26;20015;-79
2024/04/21 09:19:40;;;;;;;6.20;4.93;;;;;;;31.38;15.88;100081.22;5332039;26;20040;-78
2024/04/21 09:22:06;;;;;;;5.65;2.10;;;;;;;30.92;15.27;100103.22;5366484;26;20443;-77
2024/04/21 09:24:34;;;;;;;6.30;2.47;;;;;;;29.82;16.19;100052.91;5370865;26;20007;-79
2024/04/21 09:27:00;;;;;;;7.20;2.17;;;;;;;30.29;16.29;100071.22;5308165;26;20018;-79
2024/04/21 09:29:29;;;;;;;5.40;2.20;;;;;;;31.22;15.50;100079.97;5309217;26;20539;-80
2024/04/21 09:31:56;;;;;;;5.75;2.20;;;;;;;31.87;14.82;100072.28;5395779;26;20027;-77
2024/04/21 09:34:22;;;;;;;3.13;1.90;;;;;;;31.16;14.52;100047.41;5336185;26;20004;-79
2024/04/21 09:36:49;;;;;;;9.77;3.80;;;;;;;30.38;15.27;100069.53;5358185;26;20010;-81
2024/04/21 09:39:19;;;;;;;9.43;3.63;;;;;;;30.08;15.86;100014.94;5342658;26;20023;-78
2024/04/21 09:41:50;;;;;;;4.60;2.25;;;;;;;30.05;15.42;100008.88;5342947;26;20085;-80
2024/04/21 09:44:18;;;;;;;6.60;4.50;;;;;;;31.00;15.64;100031.84;5315415;26;19999;-80
2024/04/21 09:46:46;;;;;;;7.15;2.80;;;;;;;31.50;14.75;100047.00;5314355;26;20185;-77
2024/04/21 09:49:16;;;;;;;9.93;2.20;;;;;;;30.45;15.19;99992.88;5338204;26;20004;-78
2024/04/21 09:51:43;;;;;;;9.07;3.00;;;;;;;30.20;15.77;100022.75;5339538;26;19995;-80
2024/04/21 09:54:10;;;;;;;5.88;2.85;;;;;;;30.27;16.17;100015.00;5315635;26;20031;-80
2024/04/21 09:56:40;;;;;;;6.30;2.10;;;;;;;30.22;16.16;99992.28;5374009;26;20014;-79
2024/04/21 09:59:12;;;;;;;7.57;2.70;;;;;;;31.05;15.30;100027.75;5341580;26;20012;-79
2024/04/21 10:01:47;;;;;;;4.93;3.55;;;;;;;31.30;15.50;100012.06;5337046;26;20297;-80
2024/04/21 10:04:18;;;;;;;3.92;3.42;;;;;;;31.11;16.20;99924.25;5338291;26;20208;-80
2024/04/21 10:06:48;;;;;;;3.75;2.70;;;;;;;32.14;14.95;99980.81;5315693;26;20008;-81
2024/04/21 10:09:20;;;;;;;3.90;2.47;;;;;;;31.95;14.49;99949.50;5339134;26;20048;-78
2024/04/21 10:11:47;;;;;;;3.45;2.42;;;;;;;31.24;14.65;99908.69;5343197;26;20008;-80
2024/04/21 10:14:14;;;;;;;3.92;2.17;;;;;;;30.89;15.59;99961.16;5335972;26;20015;-78
2024/04/21 10:16:43;;;;;;;2.55;1.85;;;;;;;29.23;15.82;99921.22;5339367;26;20007;-79
2024/04/21 10:19:09;;;;;;;2.83;2.53;;;;;;;28.27;16.82;100002.16;5343400;26;20004;-75
2024/04/21 10:21:36;;;;;;;4.85;2.70;;;;;;;26.84;17.54;100010.34;5336228;26;20015;-79
2024/04/21 10:24:08;;;;;;;6.03;2.55;;;;;;;25.76;18.21;99970.84;5366614;26;20004;-78
2024/04/21 10:26:36;;;;;;;4.13;2.45;;;;;;;25.00;19.43;99925.38;5369265;26;20003;-77
2024/04/21 10:29:12;;;;;;;4.03;2.92;;;;;;;25.40;19.69;99964.44;5338270;26;20019;-78
2024/04/21 10:31:39;;;;;;;3.03;2.60;;;;;;;26.07;19.30;99962.50;5372798;26;20008;-77
2024/04/21 10:34:10;;;;;;;6.63;3.30;;;;;;;25.61;19.20;99962.09;5353079;26;20010;-80
2024/04/21 10:36:42;;;;;;;;;;;;;;;24.89;19.63;99989.13;5380478;26;19999;-78
2024/04/21 10:39:32;;;;;;;3.65;2.78;;;;;;;23.74;20.46;99946.63;5374186;26;20002;-78
2024/04/21 10:42:00;;;;;;;3.85;2.92;;;;;;;23.05;21.19;99922.47;5367207;26;19999;-78
2024/04/21 10:44:35;;;;;;;7.28;2.28;;;;;;;22.82;21.33;99947.66;5341042;26;20254;-77
2024/04/21 10:47:01;;;;;;;2.30;1.80;;;;;;;22.07;21.99;99930.56;5309484;26;20377;-79
2024/04/21 10:49:27;;;;;;;4.03;1.90;;;;;;;21.96;22.31;99939.09;5342134;26;20022;-79
2024/04/21 10:51:53;;;;;;;5.25;2.20;;;;;;;21.23;22.78;99886.44;5371740;26;20007;-79
2024/04/21 10:54:23;;;;;;;8.25;2.80;;;;;;;20.94;23.07;99901.19;5342040;26;20052;-79
2024/04/21 10:56:52;;;;;;;11.60;2.10;;;;;;;20.68;23.39;99951.72;5312840;26;20044;-78
2024/04/21 10:59:22;;;;;;;4.90;2.17;;;;;;;19.96;23.92;99933.06;5397779;26;19999;-79
2024/04/21 11:01:48;;;;;;;6.78;2.25;;;;;;;19.56;24.85;99972.63;5350385;26;20008;-77
2024/04/21 11:04:15;;;;;;;6.40;2.00;;;;;;;19.38;25.33;99925.94;5343780;26;20023;-77
2024/04/21 11:06:44;;;;;;;6.15;3.45;;;;;;;19.03;25.82;99908.06;5367598;26;20012;-79
2024/04/21 11:09:10;;;;;;;12.60;6.97;;;;;;;18.79;26.06;99913.41;5345470;26;20728;-78
2024/04/21 11:11:36;;;;;;;17.75;6.35;;;;;;;18.32;26.83;99831.88;5345703;26;20477;-77
2024/04/21 11:14:02;;;;;;;5.95;3.38;;;;;;;18.47;26.76;99872.56;5400843;26;19999;-78
2024/04/21 11:16:30;;;;;;;10.00;6.75;;;;;;;18.41;27.55;99915.81;5311793;26;20057;-79
2024/04/21 11:18:57;;;;;;;5.35;2.10;;;;;;;17.98;28.25;99849.91;5342489;26;20014;-80
2024/04/21 11:21:24;;;;;;;4.63;3.00;;;;;;;18.41;28.30;99894.75;5336620;26;20019;-79
2024/04/21 11:23:50;;;;;;;4.38;1.67;;;;;;;18.22;28.16;99876.19;5300798;26;20016;-77
2024/04/21 11:26:19;;;;;;;11.70;2.10;;;;;;;18.66;28.53;99938.56;5314623;26;20008;-78
2024/04/21 11:28:46;;;;;;;4.30;1.92;;;;;;;18.89;27.89;99899.84;5301971;26;20019;-77